Time;durP1;ratioP1;P1;durP2;ratioP2;P2;SDS_P1;SDS_P2;PMS_P1;PMS_P2;Temp;Humidity;BMP_temperature;BMP_pressure;BME280_temperature;BME280_humidity;BME280_pressure;Samples;Min_cycle;Max_cycle;Signal;HPM_P1;HPM_P2
2022/06/15 00:02:26;;;;;;;14.15;11.73;;;;;;;;;;5002719;28;20514;-77
2022/06/15 00:04:52;;;;;;;13.50;10.07;;;;;;;;;;5011284;28;20042;-77
2022/06/15 00:07:18;;;;;;;11.35;8.30;;;;;;;;;;4994139;28;20522;-77
2022/06/15 00:09:44;;;;;;;5.55;3.50;;;;;;;;;;4992847;28;20093;-77
2022/06/15 00:12:10;;;;;;;4.80;3.85;;;;;;;;;;4994224;28;20411;-77
2022/06/15 00:14:37;;;;;;;5.15;4.65;;;;;;;;;;5009091;28;20522;-77
2022/06/15 00:17:03;;;;;;;4.68;4.07;;;;;;;;;;5012641;28;20467;-77
2022/06/15 00:19:29;;;;;;;6.00;5.18;;;;;;;;;;5010820;28;20042;-76
2022/06/15 00:21:56;;;;;;;7.20;5.88;;;;;;;;;;5011403;28;20068;-77
2022/06/15 00:24:22;;;;;;;6.72;5.80;;;;;;;;;;5012823;28;20092;-77
2022/06/15 00:26:48;;;;;;;6.93;6.22;;;;;;;;;;4994628;28;20064;-78
2022/06/15 00:29:14;;;;;;;7.82;6.40;;;;;;;;;;5012237;28;20042;-77
2022/06/15 00:31:40;;;;;;;8.45;7.15;;;;;;;;;;5012531;28;20045;-78
2022/06/15 00:34:06;;;;;;;9.85;7.63;;;;;;;;;;4997907;28;20061;-78
2022/06/15 00:36:32;;;;;;;9.10;6.82;;;;;;;;;;5005771;28;20045;-77
2022/06/15 00:38:59;;;;;;;11.27;7.22;;;;;;;;;;4993066;28;20046;-77
2022/06/15 00:41:27;;;;;;;9.70;7.90;;;;;;;;;;4993251;28;20039;-78
2022/06/15 00:43:55;;;;;;;10.85;8.90;;;;;;;;;;4991867;28;20055;-78
2022/06/15 00:46:21;;;;;;;11.43;9.05;;;;;;;;;;5055929;23;20026;-76
2022/06/15 00:48:48;;;;;;;11.70;8.88;;;;;;;;;;5059341;28;20056;-76
2022/06/15 00:51:15;;;;;;;15.38;9.73;;;;;;;;;;5058471;28;20053;-77
2022/06/15 00:53:41;;;;;;;11.27;9.10;;;;;;;;;;5058711;28;20053;-76
2022/06/15 00:56:08;;;;;;;13.73;9.65;;;;;;;;;;5058951;28;20013;-79
2022/06/15 00:58:36;;;;;;;11.15;8.02;;;;;;;;;;5058167;28;20013;-77
2022/06/15 01:01:03;;;;;;;7.68;5.85;;;;;;;;;;5059303;28;20021;-77
2022/06/15 01:03:29;;;;;;;5.78;4.40;;;;;;;;;;5059281;28;20017;-76
2022/06/15 01:06:02;;;;;;;4.43;3.70;;;;;;;;;;5059125;28;20018;-76
2022/06/15 01:08:31;;;;;;;5.78;3.53;;;;;;;;;;5057284;28;20021;-77
2022/06/15 01:11:09;;;;;;;5.90;3.75;;;;;;;;;;5025409;28;20025;-76
2022/06/15 01:13:41;;;;;;;7.05;4.43;;;;;;;;;;5046904;28;20014;-78
2022/06/15 01:16:30;;;;;;;6.05;4.32;;;;;;;;;;5039426;28;20081;-76
2022/06/15 01:19:22;;;;;;;5.38;4.50;;;;;;;;;;5039146;28;20048;-76
2022/06/15 01:21:57;;;;;;;4.63;3.97;;;;;;;;;;5019373;28;20025;-76
2022/06/15 01:24:39;;;;;;;4.55;3.63;;;;;;;;;;5057064;28;20014;-76
2022/06/15 01:27:08;;;;;;;28.00;4.55;;;;;;;;;;5044152;28;20085;-77
2022/06/15 01:29:37;;;;;;;3.05;2.60;;;;;;;;;;5058997;28;20034;-77
2022/06/15 01:32:03;;;;;;;7.07;3.22;;;;;;;;;;5062808;28;20013;-76
2022/06/15 01:34:36;;;;;;;10.80;3.53;;;;;;;;;;5062104;28;20032;-77
2022/06/15 01:37:02;;;;;;;3.58;2.70;;;;;;;;;;5062692;28;20049;-76
2022/06/15 01:39:30;;;;;;;3.78;2.95;;;;;;;;;;5045046;28;20036;-77
2022/06/15 01:41:58;;;;;;;3.78;3.20;;;;;;;;;;5059459;28;20025;-77
2022/06/15 01:44:31;;;;;;;3.60;3.20;;;;;;;;;;5042733;28;20025;-77
2022/06/15 01:47:00;;;;;;;4.30;3.88;;;;;;;;;;5023122;28;20050;-77
2022/06/15 01:49:32;;;;;;;5.22;4.15;;;;;;;;;;5033424;28;20093;-77
2022/06/15 01:51:59;;;;;;;6.57;4.60;;;;;;;;;;5042423;28;20022;-77
2022/06/15 01:54:29;;;;;;;6.40;5.05;;;;;;;;;;5025033;28;20040;-77
2022/06/15 01:56:56;;;;;;;6.38;4.93;;;;;;;;;;5041903;28;20052;-77
2022/06/15 01:59:22;;;;;;;10.07;6.28;;;;;;;;;;5023055;28;20030;-77
2022/06/15 02:02:07;;;;;;;7.25;5.95;;;;;;;;;;5022627;28;20082;-77
2022/06/15 02:04:36;;;;;;;6.18;4.20;;;;;;;;;;5036499;28;20018;-77
2022/06/15 02:07:11;;;;;;;4.88;4.05;;;;;;;;;;5040579;28;20018;-77
2022/06/15 02:09:45;;;;;;;4.90;4.40;;;;;;;;;;5042089;28;20010;-77
2022/06/15 02:12:12;;;;;;;6.72;5.15;;;;;;;;;;5037246;28;20405;-77
2022/06/15 02:14:43;;;;;;;5.10;4.38;;;;;;;;;;5012260;28;20018;-77
2022/06/15 02:17:12;;;;;;;4.30;3.90;;;;;;;;;;5042071;28;20026;-77
2022/06/15 02:19:50;;;;;;;5.03;4.30;;;;;;;;;;5041899;28;20026;-77
2022/06/15 02:22:18;;;;;;;6.35;3.90;;;;;;;;;;5042016;28;20014;-80
2022/06/15 02:24:46;;;;;;;3.90;3.50;;;;;;;;;;5024996;28;20077;-78
2022/06/15 02:27:14;;;;;;;4.50;4.05;;;;;;;;;;5035062;28;20029;-77
2022/06/15 02:29:41;;;;;;;5.15;4.60;;;;;;;;;;5022160;28;20070;-77
2022/06/15 02:32:11;;;;;;;5.55;4.20;;;;;;;;;;5022004;28;20022;-77
2022/06/15 02:34:37;;;;;;;5.63;4.70;;;;;;;;;;5025664;28;20036;-77
2022/06/15 02:37:05;;;;;;;5.18;4.22;;;;;;;;;;5041588;28;20022;-77
2022/06/15 02:39:31;;;;;;;5.35;4.63;;;;;;;;;;5041584;28;20022;-77
2022/06/15 02:42:01;;;;;;;5.13;3.67;;;;;;;;;;5034474;28;20010;-77
2022/06/15 02:44:29;;;;;;;5.50;3.30;;;;;;;;;;5022011;28;20049;-76
2022/06/15 02:46:55;;;;;;;5.93;3.60;;;;;;;;;;5038276;28;20025;-77
2022/06/15 02:49:22;;;;;;;4.00;3.60;;;;;;;;;;5041041;28;20032;-77
2022/06/15 02:51:57;;;;;;;4.32;3.85;;;;;;;;;;5041419;28;20054;-77
2022/06/15 02:54:27;;;;;;;4.63;4.13;;;;;;;;;;5024423;28;20026;-77
2022/06/15 02:56:53;;;;;;;4.78;4.28;;;;;;;;;;5032395;28;20026;-77
2022/06/15 02:59:20;;;;;;;5.03;4.53;;;;;;;;;;5021836;28;20015;-77
2022/06/15 03:01:46;;;;;;;5.53;3.72;;;;;;;;;;5021576;28;20018;-77
2022/06/15 03:04:12;;;;;;;20.83;4.05;;;;;;;;;;5017765;28;20009;-78
2022/06/15 03:06:38;;;;;;;4.43;3.60;;;;;;;;;;5040816;28;20010;-78
2022/06/15 03:09:04;;;;;;;4.43;3.95;;;;;;;;;;5040961;28;20029;-78
2022/06/15 03:11:30;;;;;;;6.13;4.85;;;;;;;;;;5023210;28;20036;-79
2022/06/15 03:13:56;;;;;;;6.50;5.60;;;;;;;;;;5040918;28;20098;-79
2022/06/15 03:16:22;;;;;;;8.98;6.57;;;;;;;;;;5024145;28;20056;-79
2022/06/15 03:18:48;;;;;;;11.75;8.45;;;;;;;;;;5028763;28;20082;-77
2022/06/15 03:21:15;;;;;;;10.32;8.38;;;;;;;;;;5039428;28;20053;-77
2022/06/15 03:23:41;;;;;;;13.50;9.07;;;;;;;;;;5040714;28;20021;-77
2022/06/15 03:26:07;;;;;;;12.85;8.95;;;;;;;;;;5039983;28;20070;-77
2022/06/15 03:28:36;;;;;;;12.32;9.52;;;;;;;;;;5040725;28;20010;-77
2022/06/15 03:31:03;;;;;;;14.43;8.80;;;;;;;;;;5040607;28;20014;-77
2022/06/15 03:33:29;;;;;;;13.18;8.88;;;;;;;;;;5040415;28;20030;-77
2022/06/15 03:35:55;;;;;;;13.73;9.38;;;;;;;;;;5037784;28;20020;-77
2022/06/15 03:38:22;;;;;;;11.13;8.52;;;;;;;;;;5040642;28;20037;-77
2022/06/15 03:40:48;;;;;;;10.57;7.68;;;;;;;;;;5039873;28;20009;-77
2022/06/15 03:43:15;;;;;;;9.82;7.65;;;;;;;;;;5040007;28;20102;-77
2022/06/15 03:45:42;;;;;;;17.77;9.63;;;;;;;;;;5040078;28;20034;-77
2022/06/15 03:48:09;;;;;;;17.35;11.07;;;;;;;;;;5040351;28;20110;-77
2022/06/15 03:50:35;;;;;;;13.32;9.88;;;;;;;;;;5021252;28;20013;-77
2022/06/15 03:53:02;;;;;;;12.25;9.55;;;;;;;;;;5040319;28;20022;-77
2022/06/15 03:55:29;;;;;;;12.02;8.98;;;;;;;;;;5039001;28;20025;-77
2022/06/15 03:57:55;;;;;;;11.98;8.77;;;;;;;;;;5040265;28;20117;-76
2022/06/15 04:00:22;;;;;;;11.50;8.60;;;;;;;;;;5005665;28;20026;-77
2022/06/15 04:02:48;;;;;;;12.15;8.98;;;;;;;;;;5037905;28;20022;-77
2022/06/15 04:05:19;;;;;;;11.13;8.15;;;;;;;;;;5038845;28;20010;-77
2022/06/15 04:10:30;;;;;;;12.93;9.25;;;;;;;;;;5039935;28;20054;-76
2022/06/15 04:12:56;;;;;;;12.00;8.70;;;;;;;;;;5039958;28;20017;-77
2022/06/15 04:15:22;;;;;;;10.88;8.48;;;;;;;;;;5039663;28;20026;-77
2022/06/15 04:17:48;;;;;;;12.50;9.15;;;;;;;;;;5039650;28;20021;-76
2022/06/15 04:20:35;;;;;;;13.13;8.88;;;;;;;;;;5005683;28;20048;-77
2022/06/15 04:23:11;;;;;;;11.48;8.38;;;;;;;;;;5040012;28;20049;-76
2022/06/15 04:25:46;;;;;;;12.75;9.10;;;;;;;;;;5039856;28;20049;-76
2022/06/15 04:28:13;;;;;;;9.32;8.10;;;;;;;;;;5039891;28;20029;-76
2022/06/15 04:30:39;;;;;;;11.95;7.70;;;;;;;;;;5022986;28;20033;-76
2022/06/15 04:33:06;;;;;;;13.30;8.82;;;;;;;;;;5037310;28;20078;-77
2022/06/15 04:35:32;;;;;;;11.35;7.85;;;;;;;;;;5036798;28;20022;-77
2022/06/15 04:37:58;;;;;;;11.50;8.52;;;;;;;;;;5038959;28;20030;-77
2022/06/15 04:40:24;;;;;;;13.30;9.35;;;;;;;;;;5039404;28;20045;-77
2022/06/15 04:42:50;;;;;;;12.95;8.40;;;;;;;;;;5039636;28;20021;-76
2022/06/15 04:45:17;;;;;;;11.80;8.45;;;;;;;;;;5039281;28;20078;-77
2022/06/15 04:47:43;;;;;;;12.07;8.30;;;;;;;;;;5038717;28;20030;-77
2022/06/15 04:50:11;;;;;;;10.88;7.40;;;;;;;;;;5039408;28;20022;-76
2022/06/15 04:52:40;;;;;;;8.93;6.85;;;;;;;;;;5038852;28;20074;-77
2022/06/15 04:55:06;;;;;;;9.95;7.45;;;;;;;;;;5039378;28;20026;-77
2022/06/15 04:57:33;;;;;;;11.45;6.82;;;;;;;;;;5043397;28;20045;-77
2022/06/15 04:59:59;;;;;;;9.95;6.68;;;;;;;;;;5043515;28;20022;-76
2022/06/15 05:02:25;;;;;;;12.32;7.43;;;;;;;;;;5042371;28;20037;-77
2022/06/15 05:04:51;;;;;;;9.60;6.68;;;;;;;;;;5036324;28;20010;-77
2022/06/15 05:07:17;;;;;;;9.43;6.55;;;;;;;;;;5043244;28;20037;-77
2022/06/15 05:09:47;;;;;;;9.25;7.00;;;;;;;;;;5043267;28;20018;-77
2022/06/15 05:12:13;;;;;;;9.32;7.60;;;;;;;;;;5042871;28;20040;-77
2022/06/15 05:14:39;;;;;;;9.73;8.05;;;;;;;;;;5043111;28;20065;-77
2022/06/15 05:17:05;;;;;;;9.77;6.95;;;;;;;;;;5042223;28;20020;-77
2022/06/15 05:19:31;;;;;;;10.75;6.90;;;;;;;;;;5035699;28;20015;-77
2022/06/15 05:21:57;;;;;;;11.90;7.22;;;;;;;;;;5042261;28;20048;-77
2022/06/15 05:24:23;;;;;;;7.80;6.82;;;;;;;;;;5042944;28;20029;-77
2022/06/15 05:26:49;;;;;;;10.27;6.93;;;;;;;;;;5042825;28;20018;-77
2022/06/15 05:29:15;;;;;;;8.77;6.70;;;;;;;;;;5042326;28;20105;-78
2022/06/15 05:31:42;;;;;;;8.68;6.03;;;;;;;;;;5040432;28;20049;-77
2022/06/15 05:34:08;;;;;;;10.80;6.70;;;;;;;;;;5032399;28;20038;-77
2022/06/15 05:36:35;;;;;;;9.68;7.03;;;;;;;;;;5038821;28;20037;-77
2022/06/15 05:39:03;;;;;;;8.38;6.82;;;;;;;;;;5020317;28;20056;-77
2022/06/15 05:41:30;;;;;;;10.27;6.50;;;;;;;;;;5040452;28;20048;-77
2022/06/15 05:43:58;;;;;;;9.82;6.60;;;;;;;;;;5040430;28;20053;-76
2022/06/15 05:46:26;;;;;;;9.63;6.15;;;;;;;;;;5021287;28;20050;-76
2022/06/15 05:48:55;;;;;;;11.65;5.97;;;;;;;;;;5021486;28;20113;-76
2022/06/15 05:51:21;;;;;;;13.82;7.00;;;;;;;;;;5034591;28;20041;-76
2022/06/15 05:53:48;;;;;;;10.70;7.53;;;;;;;;;;5024087;28;20089;-77
2022/06/15 05:56:14;;;;;;;11.80;8.57;;;;;;;;;;5041013;28;20026;-77
2022/06/15 05:58:41;;;;;;;16.10;10.40;;;;;;;;;;5040255;28;20090;-77
2022/06/15 06:01:10;;;;;;;15.02;10.63;;;;;;;;;;5040984;28;20054;-77
2022/06/15 06:03:37;;;;;;;15.93;11.75;;;;;;;;;;5032788;28;20123;-77
2022/06/15 06:06:03;;;;;;;16.23;11.15;;;;;;;;;;5030386;28;20025;-77
2022/06/15 06:08:29;;;;;;;12.07;10.77;;;;;;;;;;5039682;28;20041;-77
2022/06/15 06:10:55;;;;;;;17.38;11.18;;;;;;;;;;5040711;28;20022;-76
2022/06/15 06:13:21;;;;;;;15.18;11.07;;;;;;;;;;5040110;28;20026;-77
2022/06/15 06:15:47;;;;;;;12.38;9.93;;;;;;;;;;5038366;28;20030;-78
2022/06/15 06:18:13;;;;;;;13.30;9.93;;;;;;;;;;5039674;28;20038;-77
2022/06/15 06:20:39;;;;;;;17.70;10.00;;;;;;;;;;5039974;28;20050;-77
2022/06/15 06:23:05;;;;;;;15.23;9.48;;;;;;;;;;5036940;28;20060;-79
2022/06/15 06:25:31;;;;;;;12.40;8.63;;;;;;;;;;5040081;28;20025;-79
2022/06/15 06:27:57;;;;;;;14.95;9.40;;;;;;;;;;5040382;28;20052;-79
2022/06/15 06:30:23;;;;;;;12.43;8.40;;;;;;;;;;5039055;28;20038;-81
2022/06/15 06:32:50;;;;;;;9.02;8.10;;;;;;;;;;5037386;28;20040;-78
2022/06/15 06:35:16;;;;;;;12.13;7.57;;;;;;;;;;5038414;28;20046;-77
2022/06/15 06:37:42;;;;;;;10.77;7.95;;;;;;;;;;5040295;28;20038;-76
2022/06/15 06:40:12;;;;;;;12.43;9.35;;;;;;;;;;5040227;28;20045;-77
2022/06/15 06:42:38;;;;;;;12.15;8.88;;;;;;;;;;5040237;28;20029;-76
2022/06/15 06:45:04;;;;;;;14.23;9.10;;;;;;;;;;5039511;28;20054;-77
2022/06/15 06:47:30;;;;;;;11.70;7.18;;;;;;;;;;5003638;28;20050;-76
2022/06/15 06:49:56;;;;;;;13.38;7.80;;;;;;;;;;5003585;28;20072;-77
2022/06/15 06:52:22;;;;;;;17.40;10.43;;;;;;;;;;5020273;28;20081;-77
2022/06/15 06:54:48;;;;;;;10.02;8.02;;;;;;;;;;5020215;28;20034;-76
2022/06/15 06:57:14;;;;;;;14.10;8.23;;;;;;;;;;5004592;28;20030;-77
2022/06/15 06:59:41;;;;;;;10.23;7.45;;;;;;;;;;5022894;28;20049;-77
2022/06/15 07:02:09;;;;;;;12.20;8.68;;;;;;;;;;5022923;28;20051;-76
2022/06/15 07:04:35;;;;;;;12.38;9.05;;;;;;;;;;5039633;28;20026;-76
2022/06/15 07:07:01;;;;;;;11.82;8.23;;;;;;;;;;5039633;28;20029;-77
2022/06/15 07:09:29;;;;;;;12.55;8.02;;;;;;;;;;5039601;28;20093;-76
2022/06/15 07:11:56;;;;;;;9.60;7.38;;;;;;;;;;5038772;28;20085;-76
2022/06/15 07:14:22;;;;;;;10.50;6.97;;;;;;;;;;5019794;28;20030;-76
2022/06/15 07:16:48;;;;;;;8.38;5.97;;;;;;;;;;5019913;28;20038;-76
2022/06/15 07:19:14;;;;;;;8.13;5.07;;;;;;;;;;5019037;28;20026;-76
2022/06/15 07:21:40;;;;;;;6.78;4.63;;;;;;;;;;5019742;28;20034;-76
2022/06/15 07:24:07;;;;;;;9.57;4.38;;;;;;;;;;5019770;28;20026;-76
2022/06/15 07:26:42;;;;;;;5.40;4.20;;;;;;;;;;5002914;28;20030;-77
2022/06/15 07:29:12;;;;;;;9.60;4.88;;;;;;;;;;5019695;28;20027;-76
2022/06/15 07:31:40;;;;;;;6.88;4.80;;;;;;;;;;5019719;28;20030;-76
2022/06/15 07:34:06;;;;;;;5.55;4.25;;;;;;;;;;5019512;28;20023;-76
2022/06/15 07:36:33;;;;;;;7.28;4.60;;;;;;;;;;5019104;28;20085;-76
2022/06/15 07:38:59;;;;;;;9.13;4.53;;;;;;;;;;5019410;28;20023;-76
2022/06/15 07:41:26;;;;;;;7.38;4.57;;;;;;;;;;5019438;28;20066;-76
2022/06/15 07:43:53;;;;;;;7.78;5.00;;;;;;;;;;5019447;28;20082;-77
2022/06/15 07:46:19;;;;;;;8.02;4.78;;;;;;;;;;5019012;28;20035;-76
2022/06/15 07:51:30;;;;;;;8.60;4.60;;;;;;;;;;5019242;28;20042;-76
2022/06/15 07:53:57;;;;;;;6.43;4.15;;;;;;;;;;5019052;28;20057;-76
2022/06/15 07:56:23;;;;;;;8.10;5.10;;;;;;;;;;5004407;28;20090;-77
2022/06/15 07:58:49;;;;;;;8.13;5.78;;;;;;;;;;5021961;28;20034;-77
2022/06/15 08:01:15;;;;;;;10.35;6.18;;;;;;;;;;5038839;28;20057;-77
2022/06/15 08:03:41;;;;;;;9.25;7.03;;;;;;;;;;5021832;28;20033;-77
2022/06/15 08:06:07;;;;;;;11.93;6.25;;;;;;;;;;5021791;28;20034;-76
2022/06/15 08:08:33;;;;;;;10.55;7.03;;;;;;;;;;5038701;28;20033;-76
2022/06/15 08:10:59;;;;;;;7.38;6.38;;;;;;;;;;5020620;28;20073;-77
2022/06/15 08:13:25;;;;;;;11.57;6.82;;;;;;;;;;5021570;28;20038;-77
2022/06/15 08:15:52;;;;;;;11.10;6.43;;;;;;;;;;5038522;28;20049;-77
2022/06/15 08:18:21;;;;;;;10.27;6.20;;;;;;;;;;5038660;28;20077;-76
2022/06/15 08:20:50;;;;;;;9.95;5.68;;;;;;;;;;5038371;28;20029;-76
2022/06/15 08:23:18;;;;;;;7.57;4.88;;;;;;;;;;5038523;28;20053;-76
2022/06/15 08:25:46;;;;;;;6.95;4.70;;;;;;;;;;5037340;28;20061;-77
2022/06/15 08:28:14;;;;;;;8.75;5.18;;;;;;;;;;5018739;28;20050;-76
2022/06/15 08:30:40;;;;;;;8.50;5.05;;;;;;;;;;5018582;28;20038;-76
2022/06/15 08:33:08;;;;;;;9.20;5.30;;;;;;;;;;5019352;28;20050;-76
2022/06/15 08:35:38;;;;;;;9.30;5.30;;;;;;;;;;5018523;28;20030;-76
2022/06/15 08:38:04;;;;;;;7.72;4.78;;;;;;;;;;5018170;28;20038;-76
2022/06/15 08:40:33;;;;;;;7.03;5.60;;;;;;;;;;5018677;28;20042;-77
2022/06/15 08:42:59;;;;;;;8.75;6.47;;;;;;;;;;5018520;28;20018;-76
2022/06/15 08:45:46;;;;;;;11.50;7.30;;;;;;;;;;5018146;28;20054;-76
2022/06/15 08:48:25;;;;;;;10.73;7.40;;;;;;;;;;5036234;28;20034;-77
2022/06/15 08:51:05;;;;;;;9.35;6.82;;;;;;;;;;5021394;28;20079;-77
2022/06/15 08:53:34;;;;;;;8.65;6.32;;;;;;;;;;5038230;28;20042;-77
2022/06/15 08:56:03;;;;;;;7.38;5.80;;;;;;;;;;5038106;28;20034;-77
2022/06/15 08:58:35;;;;;;;8.80;6.30;;;;;;;;;;5038105;28;20026;-77
2022/06/15 09:01:28;;;;;;;9.38;6.60;;;;;;;;;;5018899;28;20038;-78
2022/06/15 09:04:06;;;;;;;8.93;5.50;;;;;;;;;;4986086;28;20094;-77
2022/06/15 09:06:32;;;;;;;7.40;5.22;;;;;;;;;;5018288;28;20030;-76
2022/06/15 09:09:03;;;;;;;8.55;5.13;;;;;;;;;;5018274;28;20027;-77
2022/06/15 09:11:32;;;;;;;7.72;5.60;;;;;;;;;;5001682;28;20034;-77
2022/06/15 09:14:07;;;;;;;6.40;4.55;;;;;;;;;;5001599;28;20075;-78
2022/06/15 09:16:39;;;;;;;9.18;5.68;;;;;;;;;;5001661;28;20046;-78
2022/06/15 09:19:07;;;;;;;7.60;4.53;;;;;;;;;;5001657;28;20071;-77
2022/06/15 09:21:35;;;;;;;5.60;3.85;;;;;;;;;;5018210;28;20049;-78
2022/06/15 09:24:01;;;;;;;9.27;4.30;;;;;;;;;;5001448;28;20054;-76
2022/06/15 09:26:35;;;;;;;6.28;4.35;;;;;;;;;;5018254;28;20086;-76
2022/06/15 09:29:07;;;;;;;7.88;4.45;;;;;;;;;;5018224;28;20054;-76
2022/06/15 09:31:53;;;;;;;8.30;4.18;;;;;;;;;;5018137;28;20082;-76
2022/06/15 09:34:19;;;;;;;;;;;;;;;;;;4981877;28;20042;-77
2022/06/15 09:36:50;;;;;;;6.03;4.28;;;;;;;;;;5017648;28;19940;-77
2022/06/15 09:39:17;;;;;;;6.97;4.00;;;;;;;;;;5018213;28;20030;-77
2022/06/15 09:41:44;;;;;;;7.72;4.50;;;;;;;;;;5018875;28;20897;-77
2022/06/15 09:44:10;;;;;;;8.02;4.57;;;;;;;;;;5021128;28;20038;-76
2022/06/15 09:46:52;;;;;;;6.45;3.88;;;;;;;;;;5021290;28;20061;-76
2022/06/15 09:49:34;;;;;;;7.03;4.07;;;;;;;;;;5021577;28;20042;-76
2022/06/15 09:52:19;;;;;;;8.18;3.85;;;;;;;;;;5021501;28;20046;-76
2022/06/15 09:54:55;;;;;;;8.02;4.10;;;;;;;;;;5021228;28;20030;-76
2022/06/15 09:57:21;;;;;;;6.60;3.60;;;;;;;;;;5020195;28;20050;-77
2022/06/15 09:59:47;;;;;;;5.90;3.97;;;;;;;;;;5004650;28;20030;-77
2022/06/15 10:02:22;;;;;;;5.30;3.90;;;;;;;;;;5004487;28;20042;-77
2022/06/15 10:04:49;;;;;;;5.03;3.78;;;;;;;;;;5004496;28;20038;-76
2022/06/15 10:07:19;;;;;;;6.38;4.05;;;;;;;;;;5021154;28;20065;-76
2022/06/15 10:09:49;;;;;;;6.07;3.80;;;;;;;;;;5021225;28;20023;-77
2022/06/15 10:15:12;;;;;;;;;;;;;;;;;;5021568;28;20054;-77
2022/06/15 10:17:40;;;;;;;6.75;4.00;;;;;;;;;;5004279;28;19912;-77
2022/06/15 10:20:06;;;;;;;4.90;3.67;;;;;;;;;;5020914;28;20026;-77
2022/06/15 10:22:38;;;;;;;6.40;3.70;;;;;;;;;;5021041;28;20049;-77
2022/06/15 10:25:04;;;;;;;6.13;3.40;;;;;;;;;;5021014;28;20042;-77
2022/06/15 10:27:30;;;;;;;5.18;3.30;;;;;;;;;;5021174;28;20035;-76
2022/06/15 10:29:59;;;;;;;4.93;3.42;;;;;;;;;;5020753;28;20049;-78
2022/06/15 10:32:26;;;;;;;5.00;3.30;;;;;;;;;;5020758;28;20057;-77
2022/06/15 10:34:57;;;;;;;6.90;3.47;;;;;;;;;;5020455;28;20030;-77
2022/06/15 10:37:26;;;;;;;4.53;3.45;;;;;;;;;;5003884;28;20038;-77
2022/06/15 10:39:54;;;;;;;5.18;3.40;;;;;;;;;;5020612;28;20048;-77
2022/06/15 10:42:26;;;;;;;5.05;3.00;;;;;;;;;;5020529;28;20034;-77
2022/06/15 10:44:54;;;;;;;4.22;3.20;;;;;;;;;;5020449;28;20057;-77
2022/06/15 10:47:24;;;;;;;5.10;3.00;;;;;;;;;;4987455;28;20058;-77
2022/06/15 10:50:00;;;;;;;4.70;3.20;;;;;;;;;;5029641;28;20046;-77
2022/06/15 10:52:45;;;;;;;5.47;2.90;;;;;;;;;;5040140;28;20065;-77
2022/06/15 11:03:42;;;;;;;5.75;3.08;;;;;;;;;;5038199;28;20046;-77
2022/06/15 11:06:09;;;;;;;5.18;3.30;;;;;;;;;;5022945;28;20105;-77
2022/06/15 11:08:35;;;;;;;5.00;3.05;;;;;;;;;;5039749;28;20057;-77
2022/06/15 11:11:10;;;;;;;5.20;3.47;;;;;;;;;;5039697;28;20033;-77
2022/06/15 11:13:38;;;;;;;5.25;3.38;;;;;;;;;;5039630;28;20030;-76
2022/06/15 11:19:10;;;;;;;3.83;3.03;;;;;;;;;;5019630;28;20026;-77
2022/06/15 11:21:39;;;;;;;5.55;3.17;;;;;;;;;;5003098;28;20045;-77
2022/06/15 11:24:11;;;;;;;6.40;3.08;;;;;;;;;;5019782;28;20037;-77
2022/06/15 11:26:52;;;;;;;4.65;3.25;;;;;;;;;;5019724;28;20032;-76
2022/06/15 11:29:30;;;;;;;6.10;4.03;;;;;;;;;;5019737;28;20031;-77
2022/06/15 11:31:59;;;;;;;6.57;3.75;;;;;;;;;;5019587;28;20062;-76
2022/06/15 11:34:27;;;;;;;11.63;4.18;;;;;;;;;;5019838;28;20034;-77
2022/06/15 11:37:11;;;;;;;6.85;3.83;;;;;;;;;;5019487;28;20112;-76
2022/06/15 11:39:41;;;;;;;6.68;3.60;;;;;;;;;;5019457;28;20085;-76
2022/06/15 11:42:09;;;;;;;6.75;3.70;;;;;;;;;;5002636;28;20082;-77
2022/06/15 11:44:36;;;;;;;6.93;4.30;;;;;;;;;;5019371;28;20034;-76
2022/06/15 11:47:08;;;;;;;6.18;3.60;;;;;;;;;;5018959;28;20046;-77
2022/06/15 11:49:37;;;;;;;6.68;3.78;;;;;;;;;;5002616;28;20046;-78
2022/06/15 11:52:13;;;;;;;5.57;3.30;;;;;;;;;;5002517;28;20034;-78
2022/06/15 11:54:42;;;;;;;5.70;3.30;;;;;;;;;;5002515;28;20049;-78
2022/06/15 11:57:11;;;;;;;5.72;3.72;;;;;;;;;;5019181;28;20030;-78
2022/06/15 11:59:52;;;;;;;5.30;3.30;;;;;;;;;;5019190;28;20030;-78
2022/06/15 12:02:18;;;;;;;4.50;3.38;;;;;;;;;;5035086;28;20057;-78
2022/06/15 12:05:03;;;;;;;4.65;3.00;;;;;;;;;;5038417;28;20025;-78
2022/06/15 12:07:42;;;;;;;4.43;3.20;;;;;;;;;;5038693;28;20064;-78
2022/06/15 12:10:37;;;;;;;5.10;3.03;;;;;;;;;;5021792;28;20041;-78
2022/06/15 12:13:06;;;;;;;5.18;2.95;;;;;;;;;;5026140;28;20034;-78
2022/06/15 12:15:47;;;;;;;5.13;2.88;;;;;;;;;;5034702;28;20141;-77
2022/06/15 12:18:19;;;;;;;5.07;2.97;;;;;;;;;;5028457;28;20085;-78
2022/06/15 12:20:45;;;;;;;4.72;3.42;;;;;;;;;;5038662;28;20029;-77
2022/06/15 12:23:26;;;;;;;5.38;3.20;;;;;;;;;;5038499;28;20061;-77
2022/06/15 12:26:02;;;;;;;3.80;2.90;;;;;;;;;;5038546;28;20037;-77
2022/06/15 12:28:36;;;;;;;5.10;3.17;;;;;;;;;;5038488;28;20026;-77
2022/06/15 12:31:25;;;;;;;4.22;3.10;;;;;;;;;;5038425;28;20033;-77
2022/06/15 12:33:51;;;;;;;7.40;3.20;;;;;;;;;;5022041;28;20054;-77
2022/06/15 12:36:24;;;;;;;4.80;2.90;;;;;;;;;;5021528;28;20102;-77
2022/06/15 12:38:53;;;;;;;4.13;2.85;;;;;;;;;;5021481;28;20108;-77
2022/06/15 12:44:13;;;;;;;4.00;3.10;;;;;;;;;;5038350;28;20062;-77
2022/06/15 12:46:39;;;;;;;3.05;2.75;;;;;;;;;;5025090;28;20045;-77
2022/06/15 12:49:24;;;;;;;3.58;2.95;;;;;;;;;;5034645;28;20084;-77
2022/06/15 12:52:00;;;;;;;4.47;3.03;;;;;;;;;;5036702;28;20045;-77
2022/06/15 12:54:26;;;;;;;5.30;3.05;;;;;;;;;;5031383;28;20038;-83
2022/06/15 12:57:01;;;;;;;4.00;3.15;;;;;;;;;;5017990;28;20118;-77
2022/06/15 12:59:40;;;;;;;4.63;2.83;;;;;;;;;;5035543;28;20030;-83
2022/06/15 13:02:09;;;;;;;5.05;2.90;;;;;;;;;;5035839;28;20058;-82
2022/06/15 13:04:53;;;;;;;4.20;2.65;;;;;;;;;;5034797;28;20056;-83
2022/06/15 13:07:25;;;;;;;6.25;3.10;;;;;;;;;;5026346;28;20061;-79
2022/06/15 13:10:10;;;;;;;4.53;3.00;;;;;;;;;;5035611;28;20081;-79
2022/06/15 13:12:39;;;;;;;4.63;2.80;;;;;;;;;;5037903;28;20048;-80
2022/06/15 13:15:05;;;;;;;4.57;2.90;;;;;;;;;;5033776;28;20073;-81
2022/06/15 13:18:11;;;;;;;5.00;2.83;;;;;;;;;;5028318;28;20106;-79
2022/06/15 13:20:46;;;;;;;5.78;3.10;;;;;;;;;;4951635;28;20036;-80
2022/06/15 13:23:24;;;;;;;5.60;2.97;;;;;;;;;;4960812;28;20110;-80
2022/06/15 13:25:52;;;;;;;3.92;2.90;;;;;;;;;;4962697;28;20024;-80
2022/06/15 13:28:20;;;;;;;4.57;3.08;;;;;;;;;;4962824;28;20075;-79
2022/06/15 13:30:48;;;;;;;4.95;2.80;;;;;;;;;;4960313;28;20035;-80
2022/06/15 13:33:15;;;;;;;4.28;2.80;;;;;;;;;;4962239;28;20031;-80
2022/06/15 13:36:04;;;;;;;3.50;2.70;;;;;;;;;;4963152;28;20055;-80
2022/06/15 13:38:34;;;;;;;3.55;2.78;;;;;;;;;;4961370;28;20035;-80
2022/06/15 13:41:00;;;;;;;4.55;2.90;;;;;;;;;;4962941;28;20032;-80
2022/06/15 13:43:46;;;;;;;3.95;2.95;;;;;;;;;;4962195;28;20078;-80
2022/06/15 13:46:27;;;;;;;6.00;3.00;;;;;;;;;;4962018;28;20039;-81
2022/06/15 13:49:05;;;;;;;4.53;2.60;;;;;;;;;;4943123;29;20036;-79
2022/06/15 13:51:46;;;;;;;5.47;3.05;;;;;;;;;;4948054;28;20050;-80
2022/06/15 13:54:18;;;;;;;4.43;2.50;;;;;;;;;;4976491;28;20066;-80
2022/06/15 13:56:44;;;;;;;4.50;2.63;;;;;;;;;;5010490;28;20110;-80
2022/06/15 13:59:10;;;;;;;4.68;3.20;;;;;;;;;;5018580;28;20023;-80
2022/06/15 14:02:05;;;;;;;5.18;3.03;;;;;;;;;;5020476;28;20082;-81
2022/06/15 14:04:47;;;;;;;4.30;2.97;;;;;;;;;;4980753;28;20050;-81
2022/06/15 14:07:24;;;;;;;4.30;2.90;;;;;;;;;;4981903;28;20031;-81
2022/06/15 14:09:50;;;;;;;5.40;3.35;;;;;;;;;;4980910;28;20039;-81
2022/06/15 14:12:37;;;;;;;3.63;2.88;;;;;;;;;;4980284;28;20046;-79
2022/06/15 14:15:12;;;;;;;3.88;2.90;;;;;;;;;;4980314;28;20059;-80
2022/06/15 14:17:56;;;;;;;4.37;2.90;;;;;;;;;;4977782;28;20031;-78
2022/06/15 14:20:30;;;;;;;5.90;3.00;;;;;;;;;;4981273;28;20518;-77
2022/06/15 14:22:58;;;;;;;4.88;2.60;;;;;;;;;;4977070;28;20047;-80
2022/06/15 14:25:24;;;;;;;4.93;2.80;;;;;;;;;;4980114;28;20019;-80
2022/06/15 14:27:53;;;;;;;5.15;3.00;;;;;;;;;;4964002;28;20047;-79
2022/06/15 14:30:23;;;;;;;4.15;3.17;;;;;;;;;;4981099;28;20043;-80
2022/06/15 14:32:56;;;;;;;3.97;2.90;;;;;;;;;;4985226;28;20030;-80
2022/06/15 14:35:23;;;;;;;5.20;2.80;;;;;;;;;;4971003;28;20039;-77
2022/06/15 14:38:00;;;;;;;5.50;3.10;;;;;;;;;;4979935;28;20160;-80
2022/06/15 14:40:27;;;;;;;4.05;2.90;;;;;;;;;;4987701;28;20043;-81
2022/06/15 14:42:56;;;;;;;5.10;2.97;;;;;;;;;;5016736;28;20038;-77
2022/06/15 14:45:32;;;;;;;4.28;2.70;;;;;;;;;;5021559;28;20068;-77
2022/06/15 14:48:02;;;;;;;4.53;2.92;;;;;;;;;;5036626;28;20042;-77
2022/06/15 14:50:29;;;;;;;3.22;2.55;;;;;;;;;;5037106;28;20069;-76
2022/06/15 14:52:55;;;;;;;5.88;3.17;;;;;;;;;;5035335;28;20217;-76
2022/06/15 14:55:23;;;;;;;5.18;2.90;;;;;;;;;;5036327;28;20052;-77
2022/06/15 14:57:49;;;;;;;4.05;3.05;;;;;;;;;;5032271;28;20065;-77
2022/06/15 15:00:18;;;;;;;3.95;2.90;;;;;;;;;;5026650;28;20042;-77
2022/06/15 15:02:49;;;;;;;4.78;3.00;;;;;;;;;;5020696;28;20041;-80
2022/06/15 15:05:17;;;;;;;6.70;3.42;;;;;;;;;;5022442;28;20038;-79
2022/06/15 15:10:42;;;;;;;4.43;2.88;;;;;;;;;;5017150;28;20109;-76
2022/06/15 15:13:27;;;;;;;5.53;3.28;;;;;;;;;;5028001;28;20029;-79
2022/06/15 15:16:12;;;;;;;5.97;3.03;;;;;;;;;;5021665;28;20114;-77
2022/06/15 15:18:38;;;;;;;3.65;2.63;;;;;;;;;;5039467;28;20101;-78
2022/06/15 15:21:19;;;;;;;5.00;3.10;;;;;;;;;;5022600;28;20030;-78
2022/06/15 15:23:45;;;;;;;5.85;2.80;;;;;;;;;;5030773;28;20048;-79